Ana Sayfa
METAR-TAF:

METAR-TAF

Havaalanları :

Brisbane, Avustralya

Enlem: 27-23S, Boylam: 153-06E, yükseklik: 4 m

Güncel hava durumu gözlemi

Rapor saat 14:00 UTC de 29 dakika önce yapıldı.
Rüzgar batıdan 15 kt
Sıcaklık 16°C
Nem 55%
Basınç 1013 hPa
Görüş mesafesi 10 km veya daha fazla
1500 m altında bulut yok ve kümülonimbus yok

METAR: YBBN 081400Z 26015KT CAVOK 16/07 Q1013

Saat: 00:29 (14:29 UTC)

Tahmin

Rapor saat 11:07 UTC de 3 saat ve 22 dakika önce yapıldı.
Ayın 08'si saat 12 UTC'den ayın 09'si saat 18 UTC'ye kadar geçerli Tahmin
Rüzgar batı/güneybatıdan 14 kt
Görüş mesafesi 10 km veya daha fazla
1500 m altında bulut yok ve kümülonimbus yok

TAF: YBBN 081107Z 0812/0918 25014KT CAVOK

4.000'den fazla havaalanı için hava durumu gözlemleri ve tahminleri (METAR ve TAF raporları).

Kullanılabilir istasyonlar harita üzerinde sarı ve kırmızı noktalarla gösterilir.

İstasyonun adını görmek için fareyi noktanın üzerinde gezdirin.

Sonrasında hava gözlem ve tahminlerini görmek için tıklayın.

Haritayı değiştirmek için: yaklaştırmak için siyah artı işaretli yeşil düğmeye ve uzaklaştırmak için de eksi işaretli düğmeye hızla tıklayın; bitişik haritalar için yeşil okları kullanın.


METAR-TAF: